Klemme, Iowa
Current Conditions -  °F | °C
As of 6:15 PM on Wednesday 26 Nov 2014 (Local Time) from KFXY Reporting Station
Overcast Overcast  
Wind Chill: 16°   Ceiling: 800
Heat Index: 27°   Visibility: 7mi
Dew Point: 25°   Wind: 13mph
Humidity: 93%   Direction: 350°N
Pressure: 30.24"   Gusts: NA
Location:  43.01°N, 93.6°W
Report Text: KFXY 270015Z AUTO 35011KT 7SM OVC008 M03/M04 A3024 RMK AO2
Loading
Personal Weather Stations






























Interactive Weather Map New forecast layout! Learn more

10-Day Weather Forecast

Advertisements
Track Severe Weather on mobile